createdAt,value
2022-12-01T00:01:07.950Z,16.02
2022-12-01T00:03:34.552Z,15.40
2022-12-01T00:06:03.277Z,15.50
2022-12-01T00:08:30.805Z,14.93
2022-12-01T00:11:07.957Z,15.43
2022-12-01T00:13:35.542Z,14.52
2022-12-01T00:16:20.318Z,13.88
2022-12-01T00:18:50.253Z,14.25
2022-12-01T00:21:22.404Z,15.20
2022-12-01T00:23:51.301Z,14.17
2022-12-01T00:26:19.348Z,14.48
2022-12-01T00:28:53.544Z,13.55
2022-12-01T00:31:20.371Z,13.43
2022-12-01T00:33:46.944Z,13.52
2022-12-01T00:36:14.076Z,14.68
2022-12-01T00:38:40.798Z,13.95
2022-12-01T00:41:07.338Z,14.82
2022-12-01T00:43:33.969Z,13.20
2022-12-01T00:46:00.621Z,13.48
2022-12-01T00:48:27.459Z,13.95
2022-12-01T00:50:54.943Z,14.25
2022-12-01T00:53:22.377Z,13.20
2022-12-01T00:55:48.905Z,13.07
2022-12-01T00:58:15.545Z,14.43
2022-12-01T01:00:43.020Z,13.10
2022-12-01T01:03:10.490Z,13.73
2022-12-01T01:05:41.049Z,14.18
2022-12-01T01:08:12.159Z,13.93
2022-12-01T01:10:43.225Z,12.80
2022-12-01T01:13:10.507Z,12.87
2022-12-01T01:15:37.041Z,13.55
2022-12-01T01:18:04.303Z,13.38
2022-12-01T01:20:31.322Z,13.57
2022-12-01T01:22:58.072Z,12.93
2022-12-01T01:25:25.022Z,14.47
2022-12-01T01:27:51.674Z,13.65
2022-12-01T01:30:18.322Z,13.23
2022-12-01T01:32:45.034Z,12.13
2022-12-01T01:35:11.488Z,13.38
2022-12-01T01:37:38.040Z,12.40
2022-12-01T01:40:05.481Z,12.48
2022-12-01T01:42:32.057Z,13.48
2022-12-01T01:44:59.110Z,13.00
2022-12-01T01:47:40.536Z,12.88
2022-12-01T01:50:12.938Z,12.63
2022-12-01T01:52:45.184Z,13.02
2022-12-01T01:55:12.722Z,12.70
2022-12-01T01:57:40.182Z,13.35
2022-12-01T02:00:09.991Z,12.40
2022-12-01T02:02:40.936Z,11.43
2022-12-01T02:05:13.774Z,12.10
2022-12-01T02:07:42.056Z,12.57
2022-12-01T02:10:12.550Z,12.43
2022-12-01T02:12:49.946Z,13.35
2022-12-01T02:15:22.946Z,12.60
2022-12-01T02:18:14.327Z,14.15
2022-12-01T02:21:03.590Z,12.25
2022-12-01T02:23:50.590Z,12.20
2022-12-01T02:26:51.344Z,12.60
2022-12-01T02:29:26.760Z,12.30
2022-12-01T02:32:18.734Z,11.68
2022-12-01T02:34:56.794Z,11.65
2022-12-01T02:37:36.318Z,11.02
2022-12-01T02:40:11.661Z,12.02
2022-12-01T02:42:49.934Z,12.47
2022-12-01T02:45:49.221Z,12.07
2022-12-01T02:48:25.901Z,11.93
2022-12-01T02:50:53.902Z,12.40
2022-12-01T02:53:21.078Z,11.82
2022-12-01T02:55:49.398Z,11.30
2022-12-01T02:58:15.896Z,12.85
2022-12-01T03:00:55.961Z,11.73
2022-12-01T03:03:38.349Z,11.50
2022-12-01T03:06:10.716Z,11.25
2022-12-01T03:08:56.498Z,11.60
2022-12-01T03:11:34.442Z,12.40
2022-12-01T03:14:22.929Z,12.07
2022-12-01T03:16:54.024Z,12.85
2022-12-01T03:19:34.229Z,12.05
2022-12-01T03:22:12.395Z,12.87
2022-12-01T03:24:42.386Z,11.75
2022-12-01T03:27:11.444Z,12.20
2022-12-01T03:29:43.948Z,12.00
2022-12-01T03:32:16.244Z,11.95
2022-12-01T03:34:50.031Z,13.50
2022-12-01T03:37:31.822Z,12.40
2022-12-01T03:40:01.054Z,11.40
2022-12-01T03:42:37.422Z,12.43
2022-12-01T03:45:10.858Z,12.00
2022-12-01T03:47:39.646Z,12.63
2022-12-01T03:50:08.114Z,12.32
2022-12-01T03:52:50.720Z,12.02
2022-12-01T03:55:23.711Z,12.57
2022-12-01T03:57:57.052Z,11.90
2022-12-01T04:00:24.533Z,11.83
2022-12-01T04:02:58.512Z,12.55
2022-12-01T04:05:26.488Z,12.57
2022-12-01T04:07:53.393Z,12.75
2022-12-01T04:10:20.064Z,12.48
2022-12-01T04:12:46.593Z,11.47
2022-12-01T04:15:14.574Z,11.75
2022-12-01T04:17:45.691Z,11.65
2022-12-01T04:20:14.374Z,12.38
2022-12-01T04:22:41.021Z,11.85
2022-12-01T04:25:08.413Z,11.73
2022-12-01T04:27:35.336Z,12.43
2022-12-01T04:30:02.567Z,12.85
2022-12-01T04:32:29.260Z,13.25
2022-12-01T04:34:55.746Z,12.13
2022-12-01T04:37:22.243Z,12.87
2022-12-01T04:39:49.174Z,12.30
2022-12-01T04:42:15.820Z,11.75
2022-12-01T04:44:42.133Z,11.70
2022-12-01T04:47:08.679Z,12.48
2022-12-01T04:49:37.246Z,12.20
2022-12-01T04:52:04.105Z,12.82
2022-12-01T04:54:30.401Z,11.70
2022-12-01T04:56:57.106Z,12.57
2022-12-01T04:59:23.475Z,12.48
2022-12-01T05:01:50.048Z,13.10
2022-12-01T05:04:16.813Z,12.13
2022-12-01T05:06:43.653Z,12.13
2022-12-01T05:09:17.367Z,12.02
2022-12-01T05:11:44.328Z,11.93
2022-12-01T05:14:10.823Z,12.67
2022-12-01T05:16:37.766Z,13.07
2022-12-01T05:19:24.453Z,12.27
2022-12-01T05:21:51.729Z,12.48
2022-12-01T05:24:19.734Z,12.50
2022-12-01T05:26:46.217Z,12.73
2022-12-01T05:29:13.268Z,12.15
2022-12-01T05:31:39.879Z,12.13
2022-12-01T05:34:07.407Z,12.88
2022-12-01T05:36:33.718Z,12.95
2022-12-01T05:39:00.230Z,13.73
2022-12-01T05:41:26.722Z,12.48
2022-12-01T05:43:53.052Z,12.60
2022-12-01T05:46:19.955Z,12.73
2022-12-01T05:48:47.350Z,13.05
2022-12-01T05:51:16.701Z,13.27
2022-12-01T05:53:44.040Z,14.55
2022-12-01T05:56:10.919Z,14.10
2022-12-01T05:58:37.896Z,13.55
2022-12-01T06:01:04.675Z,14.00
2022-12-01T06:03:31.006Z,13.27
2022-12-01T06:05:57.517Z,13.30
2022-12-01T06:08:24.103Z,15.05
2022-12-01T06:10:50.673Z,15.45
2022-12-01T06:13:17.337Z,16.00
2022-12-01T06:15:43.861Z,15.93
2022-12-01T06:18:10.457Z,18.75
2022-12-01T06:20:37.038Z,22.77
2022-12-01T06:23:03.624Z,20.08
2022-12-01T06:25:30.174Z,17.50
2022-12-01T06:27:59.826Z,15.30
2022-12-01T06:30:26.665Z,13.30
2022-12-01T06:32:53.215Z,14.77
2022-12-01T06:35:20.011Z,14.55
2022-12-01T06:37:46.622Z,13.63
2022-12-01T06:40:13.496Z,14.03
2022-12-01T06:42:39.960Z,13.48
2022-12-01T06:45:06.703Z,14.05
2022-12-01T06:47:33.212Z,14.85
2022-12-01T06:49:59.892Z,15.60
2022-12-01T06:52:27.091Z,13.87
2022-12-01T06:54:53.930Z,14.57
2022-12-01T06:57:21.111Z,30.90
2022-12-01T06:59:47.971Z,17.90
2022-12-01T07:02:15.317Z,17.50
2022-12-01T07:04:41.762Z,16.07
2022-12-01T07:07:08.385Z,16.60
2022-12-01T07:09:35.243Z,16.42
2022-12-01T07:12:01.693Z,17.33
2022-12-01T07:14:28.329Z,16.50
2022-12-01T07:16:55.105Z,15.57
2022-12-01T07:19:21.696Z,17.58
2022-12-01T07:21:48.071Z,15.60
2022-12-01T07:24:14.701Z,14.85
2022-12-01T07:26:41.458Z,16.30
2022-12-01T07:29:09.366Z,14.77
2022-12-01T07:31:38.330Z,23.58
2022-12-01T07:34:05.705Z,21.70
2022-12-01T07:36:32.309Z,16.67
2022-12-01T07:38:58.918Z,19.15
2022-12-01T07:41:25.515Z,17.58
2022-12-01T07:43:52.296Z,15.85
2022-12-01T07:46:23.482Z,15.23
2022-12-01T07:48:50.776Z,13.95
2022-12-01T07:51:17.826Z,18.00
2022-12-01T07:53:49.194Z,14.60
2022-12-01T07:56:16.915Z,15.57
2022-12-01T07:58:43.387Z,14.80
2022-12-01T08:01:14.924Z,14.43
2022-12-01T08:03:42.483Z,14.80
2022-12-01T08:06:09.705Z,14.60
2022-12-01T08:08:38.400Z,16.15
2022-12-01T08:11:07.838Z,17.42
2022-12-01T08:13:34.925Z,14.00
2022-12-01T08:16:06.254Z,16.08
2022-12-01T08:18:37.584Z,15.40
2022-12-01T08:21:05.407Z,14.88
2022-12-01T08:23:32.136Z,17.35
2022-12-01T08:26:03.128Z,16.65
2022-12-01T08:28:30.090Z,14.90
2022-12-01T08:30:56.635Z,16.97
2022-12-01T08:33:23.981Z,13.43
2022-12-01T08:35:50.293Z,13.65
2022-12-01T08:38:17.034Z,14.10
2022-12-01T08:40:43.543Z,13.07
2022-12-01T08:43:15.192Z,18.53
2022-12-01T08:45:49.503Z,17.15
2022-12-01T08:48:16.049Z,16.15
2022-12-01T08:50:42.628Z,14.05
2022-12-01T08:53:09.201Z,14.35
2022-12-01T08:55:35.700Z,16.10
2022-12-01T08:58:02.157Z,14.63
2022-12-01T09:00:29.321Z,14.07
2022-12-01T09:02:55.843Z,13.48
2022-12-01T09:05:22.411Z,15.80
2022-12-01T09:08:08.921Z,12.83
2022-12-01T09:10:35.527Z,12.98
2022-12-01T09:13:01.926Z,14.60
2022-12-01T09:15:28.519Z,13.32
2022-12-01T09:17:55.082Z,15.57
2022-12-01T09:20:21.631Z,14.27
2022-12-01T09:22:48.161Z,15.38
2022-12-01T09:25:14.831Z,16.52
2022-12-01T09:27:41.392Z,13.60
2022-12-01T09:30:08.441Z,13.77
2022-12-01T09:32:34.951Z,14.47
2022-12-01T09:35:01.418Z,13.25
2022-12-01T09:37:27.988Z,14.20
2022-12-01T09:39:54.500Z,13.15
2022-12-01T09:42:30.878Z,13.15
2022-12-01T09:45:05.112Z,13.23
2022-12-01T09:47:35.055Z,13.77
2022-12-01T09:50:14.697Z,12.88
2022-12-01T09:53:06.647Z,12.25
2022-12-01T09:55:35.071Z,12.07
2022-12-01T09:58:03.394Z,11.00
2022-12-01T10:00:33.141Z,11.35
2022-12-01T10:03:35.017Z,12.05
2022-12-01T10:06:28.562Z,11.20
2022-12-01T10:09:13.029Z,11.25
2022-12-01T10:11:42.853Z,12.03
2022-12-01T10:14:19.716Z,10.55
2022-12-01T10:17:06.901Z,14.55
2022-12-01T10:19:50.626Z,11.65
2022-12-01T10:22:49.525Z,13.48
2022-12-01T10:25:38.117Z,11.07
2022-12-01T10:28:34.145Z,11.50
2022-12-01T10:31:53.702Z,11.90
2022-12-01T10:34:25.484Z,11.32
2022-12-01T10:36:52.255Z,11.95
2022-12-01T10:39:31.328Z,11.90
2022-12-01T10:42:06.078Z,12.27
2022-12-01T10:44:33.961Z,10.68
2022-12-01T10:47:00.461Z,11.38
2022-12-01T10:49:41.291Z,12.07
2022-12-01T10:52:27.272Z,11.57
2022-12-01T10:54:53.782Z,12.10
2022-12-01T10:57:20.386Z,11.60
2022-12-01T10:59:57.941Z,11.20
2022-12-01T11:02:27.779Z,11.55
2022-12-01T11:05:31.946Z,12.10
2022-12-01T11:07:59.056Z,11.15
2022-12-01T11:10:37.396Z,11.48
2022-12-01T11:13:24.002Z,12.95
2022-12-01T11:15:58.683Z,10.85
2022-12-01T11:18:27.948Z,11.50
2022-12-01T11:21:14.338Z,12.25
2022-12-01T11:23:48.789Z,11.93
2022-12-01T11:26:32.110Z,11.85
2022-12-01T11:29:02.455Z,11.77
2022-12-01T11:31:43.845Z,14.50
2022-12-01T11:34:24.537Z,15.90
2022-12-01T11:36:55.774Z,16.83
2022-12-01T11:39:34.005Z,21.65
2022-12-01T11:42:26.155Z,12.98
2022-12-01T11:45:00.473Z,12.13
2022-12-01T11:47:27.771Z,10.82
2022-12-01T11:50:03.252Z,11.88
2022-12-01T11:52:33.433Z,11.93
2022-12-01T11:55:08.468Z,11.50
2022-12-01T11:57:37.639Z,11.37
2022-12-01T12:00:19.135Z,13.27
2022-12-01T12:03:08.576Z,13.13
2022-12-01T12:06:11.728Z,11.43
2022-12-01T12:09:29.428Z,10.77
2022-12-01T12:12:16.521Z,12.07
2022-12-01T12:15:16.776Z,10.18
2022-12-01T12:17:58.491Z,12.57
2022-12-01T12:20:35.648Z,11.63
2022-12-01T12:23:29.708Z,12.73
2022-12-01T12:26:23.397Z,15.70
2022-12-01T12:29:27.561Z,12.57
2022-12-01T12:32:15.254Z,11.40
2022-12-01T12:35:02.822Z,15.93
2022-12-01T12:37:51.699Z,15.32
2022-12-01T12:40:21.149Z,15.97
2022-12-01T12:43:17.931Z,16.42
2022-12-01T12:45:59.585Z,14.25
2022-12-01T12:49:18.042Z,14.38
2022-12-01T12:51:47.858Z,13.95
2022-12-01T12:54:20.654Z,13.03
2022-12-01T12:56:51.465Z,12.02
2022-12-01T12:59:37.214Z,11.95
2022-12-01T13:02:24.485Z,10.80
2022-12-01T13:05:15.117Z,11.40
2022-12-01T13:07:49.817Z,10.70
2022-12-01T13:10:33.245Z,11.60
2022-12-01T13:13:12.118Z,12.10
2022-12-01T13:15:41.650Z,11.15
2022-12-01T13:18:23.377Z,11.60
2022-12-01T13:20:52.105Z,13.20
2022-12-01T13:23:21.201Z,26.33
2022-12-01T13:25:54.851Z,32.25
2022-12-01T13:28:27.568Z,41.70
2022-12-01T13:31:20.972Z,13.43
2022-12-01T13:34:04.942Z,9.73
2022-12-01T13:36:49.229Z,9.73
2022-12-01T13:39:24.728Z,10.13
2022-12-01T13:42:00.665Z,11.55
2022-12-01T13:44:39.876Z,15.63
2022-12-01T13:48:22.991Z,11.37
2022-12-01T13:50:57.357Z,11.57
2022-12-01T13:53:30.199Z,11.85
2022-12-01T13:56:02.667Z,12.07
2022-12-01T13:58:35.089Z,13.35
2022-12-01T14:01:20.217Z,15.60
2022-12-01T14:04:11.760Z,13.40
2022-12-01T14:06:49.512Z,11.50
2022-12-01T14:09:31.642Z,11.60
2022-12-01T14:12:01.385Z,12.63
2022-12-01T14:14:36.177Z,12.97
2022-12-01T14:17:03.683Z,12.45
2022-12-01T14:19:42.322Z,11.93
2022-12-01T14:22:33.289Z,11.48
2022-12-01T14:25:01.246Z,11.95
2022-12-01T14:27:34.790Z,11.03
2022-12-01T14:30:45.981Z,11.40
2022-12-01T14:33:42.131Z,11.65
2022-12-01T14:36:11.640Z,10.95
2022-12-01T14:38:38.573Z,10.80
2022-12-01T14:41:10.542Z,10.80
2022-12-01T14:43:59.036Z,10.88
2022-12-01T14:46:30.906Z,12.18
2022-12-01T14:48:58.571Z,13.32
2022-12-01T14:51:34.356Z,11.90
2022-12-01T14:54:08.717Z,10.50
2022-12-01T14:56:37.181Z,12.05
2022-12-01T14:59:23.007Z,11.95
2022-12-01T15:01:52.650Z,13.60
2022-12-01T15:04:19.871Z,12.25
2022-12-01T15:06:46.871Z,12.67
2022-12-01T15:09:34.135Z,12.45
2022-12-01T15:12:04.904Z,13.45
2022-12-01T15:14:37.739Z,14.90
2022-12-01T15:17:06.260Z,12.43
2022-12-01T15:19:39.151Z,14.83
2022-12-01T15:22:14.761Z,16.65
2022-12-01T15:24:42.019Z,12.20
2022-12-01T15:27:30.365Z,12.63
2022-12-01T15:30:03.288Z,13.45
2022-12-01T15:32:31.859Z,13.60
2022-12-01T15:35:04.774Z,13.60
2022-12-01T15:37:43.186Z,13.88
2022-12-01T15:43:06.337Z,15.57
2022-12-01T15:45:51.323Z,14.20
2022-12-01T15:48:28.704Z,14.98
2022-12-01T15:51:19.407Z,14.73
2022-12-01T15:53:50.181Z,13.93
2022-12-01T15:56:24.369Z,14.77
2022-12-01T15:58:51.861Z,15.43
2022-12-01T16:01:19.929Z,14.52
2022-12-01T16:04:04.593Z,17.33
2022-12-01T16:06:34.662Z,18.52
2022-12-01T16:09:04.480Z,19.65
2022-12-01T16:11:31.486Z,18.33
2022-12-01T16:14:02.196Z,21.77
2022-12-01T16:16:29.348Z,18.17
2022-12-01T16:18:57.824Z,17.63
2022-12-01T16:21:26.515Z,15.88
2022-12-01T16:24:01.041Z,15.73
2022-12-01T16:26:28.577Z,14.65
2022-12-01T16:28:56.187Z,16.42
2022-12-01T16:31:23.073Z,16.30
2022-12-01T16:34:06.568Z,14.88
2022-12-01T16:36:40.497Z,24.33
2022-12-01T16:39:07.989Z,21.20
2022-12-01T16:41:38.780Z,17.02
2022-12-01T16:44:27.733Z,20.42
2022-12-01T16:46:52.097Z,37.60
2022-12-01T16:49:18.573Z,29.90
2022-12-01T16:52:11.179Z,26.40
2022-12-01T16:54:31.423Z,22.77
2022-12-01T16:56:57.735Z,21.52
2022-12-01T16:59:24.747Z,19.58
2022-12-01T17:01:51.146Z,15.43
2022-12-01T17:04:18.135Z,15.60
2022-12-01T17:06:44.652Z,16.83
2022-12-01T17:09:11.010Z,15.35
2022-12-01T17:11:37.509Z,16.65
2022-12-01T17:14:04.060Z,15.67
2022-12-01T17:16:30.724Z,15.18
2022-12-01T17:18:57.270Z,16.50
2022-12-01T17:21:23.757Z,15.60
2022-12-01T17:23:50.252Z,18.35
2022-12-01T17:26:18.975Z,18.00
2022-12-01T17:28:45.769Z,18.52
2022-12-01T17:31:12.841Z,20.50
2022-12-01T17:33:39.743Z,21.85
2022-12-01T17:36:10.469Z,21.10
2022-12-01T17:38:39.338Z,19.30
2022-12-01T17:41:10.906Z,20.48
2022-12-01T17:43:39.164Z,22.58
2022-12-01T17:46:08.054Z,23.33
2022-12-01T17:48:39.545Z,23.25
2022-12-01T17:51:07.041Z,20.00
2022-12-01T17:53:33.624Z,20.55
2022-12-01T17:55:59.997Z,23.58
2022-12-01T17:58:26.366Z,23.35
2022-12-01T18:00:53.719Z,21.65
2022-12-01T18:03:20.543Z,23.17
2022-12-01T18:05:57.216Z,23.02
2022-12-01T18:08:25.283Z,23.13
2022-12-01T18:10:51.882Z,22.70
2022-12-01T18:13:20.296Z,22.75
2022-12-01T18:15:48.042Z,20.63
2022-12-01T18:18:14.650Z,21.27
2022-12-01T18:20:42.622Z,21.73
2022-12-01T18:23:10.442Z,19.67
2022-12-01T18:25:37.768Z,20.13
2022-12-01T18:28:05.181Z,19.10
2022-12-01T18:30:33.951Z,21.38
2022-12-01T18:33:01.045Z,20.25
2022-12-01T18:35:31.725Z,25.20
2022-12-01T18:37:58.556Z,34.05
2022-12-01T18:40:24.890Z,28.70
2022-12-01T18:42:51.200Z,32.13
2022-12-01T18:45:21.331Z,21.98
2022-12-01T18:47:48.344Z,17.33
2022-12-01T18:50:15.183Z,17.17
2022-12-01T18:52:41.578Z,15.73
2022-12-01T18:55:08.427Z,17.80
2022-12-01T18:57:34.933Z,18.63
2022-12-01T19:00:02.255Z,16.63
2022-12-01T19:02:28.872Z,16.88
2022-12-01T19:04:55.426Z,53.13
2022-12-01T19:07:28.038Z,26.00
2022-12-01T19:09:56.012Z,19.08
2022-12-01T19:12:22.341Z,17.55
2022-12-01T19:14:49.195Z,17.77
2022-12-01T19:17:15.685Z,24.87
2022-12-01T19:19:42.065Z,19.58
2022-12-01T19:22:08.588Z,17.08
2022-12-01T19:24:35.047Z,15.90
2022-12-01T19:27:01.558Z,17.90
2022-12-01T19:29:28.301Z,16.13
2022-12-01T19:31:54.913Z,29.08
2022-12-01T19:34:21.510Z,18.20
2022-12-01T19:36:49.904Z,14.93
2022-12-01T19:39:16.459Z,14.60
2022-12-01T19:41:42.905Z,18.03
2022-12-01T19:44:10.336Z,16.10
2022-12-01T19:46:36.740Z,74.70
2022-12-01T19:49:04.017Z,19.98
2022-12-01T19:51:35.275Z,22.17
2022-12-01T19:54:03.089Z,21.80
2022-12-01T19:56:29.801Z,16.83
2022-12-01T19:58:57.989Z,19.90
2022-12-01T20:01:24.612Z,27.65
2022-12-01T20:03:53.004Z,28.25
2022-12-01T20:06:24.565Z,34.60
2022-12-01T20:08:51.910Z,22.88
2022-12-01T20:11:18.663Z,20.00
2022-12-01T20:13:46.735Z,21.42
2022-12-01T20:16:21.635Z,24.17
2022-12-01T20:18:48.852Z,18.90
2022-12-01T20:21:19.822Z,18.38
2022-12-01T20:23:49.053Z,19.45
2022-12-01T20:26:17.013Z,17.40
2022-12-01T20:28:45.686Z,17.73
2022-12-01T20:31:16.017Z,17.67
2022-12-01T20:33:42.964Z,17.45
2022-12-01T20:36:09.919Z,17.80
2022-12-01T20:38:39.474Z,17.17
2022-12-01T20:41:06.854Z,17.13
2022-12-01T20:43:34.582Z,16.13
2022-12-01T20:46:01.649Z,17.02
2022-12-01T20:48:28.470Z,18.02
2022-12-01T20:50:54.869Z,18.60
2022-12-01T20:53:22.485Z,17.83
2022-12-01T20:55:49.167Z,17.87
2022-12-01T20:58:15.704Z,17.42
2022-12-01T21:00:44.387Z,18.08
2022-12-01T21:03:12.042Z,17.98
2022-12-01T21:05:43.684Z,17.90
2022-12-01T21:08:12.856Z,18.80
2022-12-01T21:10:42.656Z,20.05
2022-12-01T21:13:42.223Z,22.55
2022-12-01T21:16:19.723Z,20.58
2022-12-01T21:19:11.218Z,20.52
2022-12-01T21:21:41.469Z,19.30
2022-12-01T21:24:07.900Z,19.92
2022-12-01T21:26:39.258Z,25.63
2022-12-01T21:29:19.951Z,17.73
2022-12-01T21:31:49.520Z,18.13
2022-12-01T21:34:28.430Z,18.73
2022-12-01T21:36:57.366Z,18.95
2022-12-01T21:39:25.308Z,19.90
2022-12-01T21:41:56.862Z,19.50
2022-12-01T21:44:33.022Z,20.55
2022-12-01T21:47:13.213Z,20.70
2022-12-01T21:49:40.191Z,23.75
2022-12-01T21:52:14.570Z,21.33
2022-12-01T21:54:41.070Z,22.75
2022-12-01T21:57:42.960Z,21.65
2022-12-01T22:00:32.775Z,21.47
2022-12-01T22:03:08.415Z,22.55
2022-12-01T22:05:42.152Z,24.05
2022-12-01T22:08:14.751Z,23.05
2022-12-01T22:10:51.581Z,25.65
2022-12-01T22:13:19.470Z,21.07
2022-12-01T22:15:45.962Z,22.35
2022-12-01T22:18:32.402Z,24.42
2022-12-01T22:21:01.183Z,21.33
2022-12-01T22:23:34.050Z,21.52
2022-12-01T22:26:01.437Z,20.70
2022-12-01T22:28:27.902Z,21.23
2022-12-01T22:30:54.957Z,20.92
2022-12-01T22:33:24.590Z,20.05
2022-12-01T22:35:52.912Z,20.02
2022-12-01T22:38:34.728Z,21.53
2022-12-01T22:41:15.650Z,19.67
2022-12-01T22:43:50.863Z,21.15
2022-12-01T22:46:30.498Z,21.25
2022-12-01T22:49:10.847Z,22.73
2022-12-01T22:51:45.244Z,21.43
2022-12-01T22:54:14.557Z,21.88
2022-12-01T22:56:56.859Z,21.85
2022-12-01T22:59:36.125Z,20.65
2022-12-01T23:02:17.889Z,20.98
2022-12-01T23:04:46.870Z,19.93
2022-12-01T23:07:31.770Z,22.10
2022-12-01T23:10:21.732Z,19.75
2022-12-01T23:12:50.533Z,20.60
2022-12-01T23:15:38.401Z,22.20
2022-12-01T23:18:23.432Z,20.63
2022-12-01T23:20:53.098Z,21.15
2022-12-01T23:23:28.371Z,20.70
2022-12-01T23:25:55.295Z,20.23
2022-12-01T23:28:21.981Z,22.00
2022-12-01T23:30:52.832Z,21.77
2022-12-01T23:33:30.278Z,21.58
2022-12-01T23:36:02.212Z,22.77
2022-12-01T23:38:34.662Z,22.67
2022-12-01T23:41:04.256Z,23.45
2022-12-01T23:43:40.113Z,22.27
2022-12-01T23:46:19.431Z,21.58
2022-12-01T23:48:47.533Z,22.42
2022-12-01T23:51:24.420Z,21.00
2022-12-01T23:53:56.074Z,21.38
2022-12-01T23:56:27.914Z,22.17
2022-12-01T23:58:56.672Z,22.52
